Time;durP1;ratioP1;P1;durP2;ratioP2;P2;SDS_P1;SDS_P2;PMS_P1;PMS_P2;Temp;Humidity;BMP_temperature;BMP_pressure;BME280_temperature;BME280_humidity;BME280_pressure;Samples;Min_cycle;Max_cycle;Signal;HPM_P1;HPM_P2
2022/04/12 00:02:16;;;;;;;29.63;17.38;;;;;;;;;;4978236;28;20085;-71
2022/04/12 00:04:42;;;;;;;31.80;17.65;;;;;;;;;;4960608;28;20501;-70
2022/04/12 00:07:07;;;;;;;37.67;19.48;;;;;;;;;;4978168;28;20048;-69
2022/04/12 00:09:33;;;;;;;34.80;20.17;;;;;;;;;;4977807;28;20031;-70
2022/04/12 00:11:58;;;;;;;52.40;26.55;;;;;;;;;;4977797;28;20046;-70
2022/04/12 00:14:24;;;;;;;48.50;26.08;;;;;;;;;;4960325;28;20023;-70
2022/04/12 00:19:02;;;;;;;53.72;28.85;;;;;;;;;;4977712;28;20046;-69
2022/04/12 00:19:34;;;;;;;49.47;26.25;;;;;;;;;;4977556;28;20035;-72
2022/04/12 00:22:00;;;;;;;42.15;21.45;;;;;;;;;;4977855;28;20022;-71
2022/04/12 00:24:25;;;;;;;46.38;20.98;;;;;;;;;;4977478;28;20458;-70
2022/04/12 00:26:51;;;;;;;40.65;19.98;;;;;;;;;;4977817;28;20026;-69
2022/04/12 00:29:16;;;;;;;33.65;18.90;;;;;;;;;;4977458;28;20031;-70
2022/04/12 00:31:42;;;;;;;28.20;16.30;;;;;;;;;;4977861;28;20014;-68
2022/04/12 00:34:07;;;;;;;27.30;16.65;;;;;;;;;;4976760;28;20451;-70
2022/04/12 00:36:33;;;;;;;27.15;16.55;;;;;;;;;;4977609;28;20033;-70
2022/04/12 00:38:58;;;;;;;31.38;17.67;;;;;;;;;;4977321;28;20042;-70
2022/04/12 00:41:24;;;;;;;27.10;14.98;;;;;;;;;;4959709;28;20093;-70
2022/04/12 00:43:50;;;;;;;27.92;16.98;;;;;;;;;;4977115;28;20077;-70
2022/04/12 00:46:15;;;;;;;25.50;14.70;;;;;;;;;;4977438;28;20025;-73
2022/04/12 00:48:40;;;;;;;23.33;13.73;;;;;;;;;;4977392;28;20026;-75
2022/04/12 00:51:06;;;;;;;21.88;13.32;;;;;;;;;;4977309;28;20100;-74
2022/04/12 00:53:32;;;;;;;24.60;14.73;;;;;;;;;;4977317;28;20041;-72
2022/04/12 00:55:58;;;;;;;29.92;16.77;;;;;;;;;;4976981;28;20386;-72
2022/04/12 00:58:23;;;;;;;40.92;21.40;;;;;;;;;;4976911;28;20065;-71
2022/04/12 01:00:49;;;;;;;30.33;17.52;;;;;;;;;;4976894;28;20387;-69
2022/04/12 01:03:15;;;;;;;35.42;19.70;;;;;;;;;;4976967;28;20043;-70
2022/04/12 01:05:40;;;;;;;36.30;20.13;;;;;;;;;;4977254;28;20021;-70
2022/04/12 01:08:06;;;;;;;28.45;16.83;;;;;;;;;;4976981;28;20027;-70
2022/04/12 01:10:33;;;;;;;31.77;17.35;;;;;;;;;;4976975;28;20077;-70
2022/04/12 01:12:59;;;;;;;28.25;16.58;;;;;;;;;;4959326;28;20026;-70
2022/04/12 01:15:25;;;;;;;25.67;14.13;;;;;;;;;;4977094;28;20094;-71
2022/04/12 01:17:51;;;;;;;24.33;14.10;;;;;;;;;;4976574;28;20031;-70
2022/04/12 01:20:17;;;;;;;25.73;13.85;;;;;;;;;;4976837;28;20027;-70
2022/04/12 01:23:03;;;;;;;24.55;14.07;;;;;;;;;;4976710;28;20035;-69
2022/04/12 01:25:28;;;;;;;26.13;15.73;;;;;;;;;;4976106;28;20468;-70
2022/04/12 01:27:55;;;;;;;29.85;17.30;;;;;;;;;;4976800;28;20051;-70
2022/04/12 01:30:20;;;;;;;28.35;16.67;;;;;;;;;;4976656;28;20042;-71
2022/04/12 01:32:46;;;;;;;24.60;14.55;;;;;;;;;;4976568;28;20027;-71
2022/04/12 01:35:11;;;;;;;25.35;14.55;;;;;;;;;;4976687;28;20492;-71
2022/04/12 01:37:36;;;;;;;29.77;16.15;;;;;;;;;;4976460;28;20045;-70
2022/04/12 01:40:03;;;;;;;32.08;16.98;;;;;;;;;;4976027;28;20158;-70
2022/04/12 01:42:28;;;;;;;27.63;15.07;;;;;;;;;;4976427;28;20042;-70
2022/04/12 01:44:53;;;;;;;26.70;14.82;;;;;;;;;;4975251;28;20042;-70
2022/04/12 01:47:19;;;;;;;29.70;15.60;;;;;;;;;;4959108;28;20018;-71
2022/04/12 01:49:50;;;;;;;32.58;17.92;;;;;;;;;;4975969;28;20482;-71
2022/04/12 01:52:15;;;;;;;31.02;17.25;;;;;;;;;;4976387;28;20022;-71
2022/04/12 01:54:41;;;;;;;34.47;17.70;;;;;;;;;;4958868;28;20030;-71
2022/04/12 01:57:06;;;;;;;34.08;18.70;;;;;;;;;;4976079;28;20454;-71
2022/04/12 01:59:32;;;;;;;33.97;18.42;;;;;;;;;;4976169;28;20090;-71
2022/04/12 02:01:57;;;;;;;31.02;17.88;;;;;;;;;;4976156;28;20026;-70
2022/04/12 02:04:23;;;;;;;32.00;18.02;;;;;;;;;;4975651;28;20101;-70
2022/04/12 02:06:48;;;;;;;32.63;17.92;;;;;;;;;;4975807;28;20449;-69
2022/04/12 02:09:20;;;;;;;30.08;16.95;;;;;;;;;;4975769;28;20410;-69
2022/04/12 02:11:46;;;;;;;29.52;16.50;;;;;;;;;;4975925;28;20031;-69
2022/04/12 02:14:11;;;;;;;24.35;14.93;;;;;;;;;;4976049;28;20022;-69
2022/04/12 02:16:36;;;;;;;29.17;17.02;;;;;;;;;;4975983;28;20054;-69
2022/04/12 02:19:03;;;;;;;29.83;16.95;;;;;;;;;;4975574;28;20104;-70
2022/04/12 02:21:28;;;;;;;32.63;18.20;;;;;;;;;;4975938;28;20039;-70
2022/04/12 02:23:53;;;;;;;27.45;17.40;;;;;;;;;;4975919;28;20033;-70
2022/04/12 02:26:19;;;;;;;29.73;17.73;;;;;;;;;;4975355;28;20113;-70
2022/04/12 02:28:44;;;;;;;28.30;17.63;;;;;;;;;;4975297;28;20026;-70
2022/04/12 02:31:09;;;;;;;26.30;17.38;;;;;;;;;;4975532;28;20055;-70
2022/04/12 02:33:35;;;;;;;30.25;17.35;;;;;;;;;;4975477;28;20077;-70
2022/04/12 02:36:00;;;;;;;28.83;17.17;;;;;;;;;;4957915;28;20037;-69
2022/04/12 02:38:25;;;;;;;29.40;18.05;;;;;;;;;;4975403;28;20098;-70
2022/04/12 02:40:51;;;;;;;37.75;20.85;;;;;;;;;;4975107;28;20054;-70
2022/04/12 02:43:16;;;;;;;37.65;23.88;;;;;;;;;;4957733;28;20022;-70
2022/04/12 02:45:42;;;;;;;37.47;24.38;;;;;;;;;;4958088;28;20125;-72
2022/04/12 02:48:12;;;;;;;35.95;23.83;;;;;;;;;;4975319;28;20034;-70
2022/04/12 02:50:37;;;;;;;;;;;;;;;;;;4975911;28;20105;-71
2022/04/12 02:53:03;;;;;;;40.37;24.57;;;;;;;;;;4975124;28;20366;-71
2022/04/12 02:55:28;;;;;;;37.70;24.17;;;;;;;;;;4975301;28;20282;-71
2022/04/12 02:57:55;;;;;;;38.80;24.85;;;;;;;;;;4958400;28;20023;-71
2022/04/12 03:00:20;;;;;;;39.70;23.65;;;;;;;;;;4975321;28;20458;-69
2022/04/12 03:02:46;;;;;;;36.05;23.23;;;;;;;;;;4974826;28;20023;-70
2022/04/12 03:05:12;;;;;;;39.35;24.77;;;;;;;;;;4975069;28;20031;-73
2022/04/12 03:07:43;;;;;;;37.63;23.65;;;;;;;;;;4975159;28;20074;-73
2022/04/12 03:10:08;;;;;;;39.70;24.52;;;;;;;;;;4974945;28;20385;-73
2022/04/12 03:12:34;;;;;;;44.38;27.98;;;;;;;;;;4974710;28;20094;-71
2022/04/12 03:15:01;;;;;;;45.25;26.63;;;;;;;;;;4975418;28;20135;-71
2022/04/12 03:17:27;;;;;;;47.42;25.77;;;;;;;;;;4974863;28;20023;-71
2022/04/12 03:19:52;;;;;;;56.47;27.10;;;;;;;;;;4974916;28;20402;-68
2022/04/12 03:22:18;;;;;;;53.25;26.65;;;;;;;;;;4958138;28;20363;-67
2022/04/12 03:24:44;;;;;;;46.22;26.02;;;;;;;;;;4975324;28;20138;-70
2022/04/12 03:27:11;;;;;;;44.30;24.88;;;;;;;;;;4974734;28;20402;-69
2022/04/12 03:29:36;;;;;;;43.08;23.98;;;;;;;;;;4974640;28;20030;-67
2022/04/12 03:32:02;;;;;;;38.45;23.08;;;;;;;;;;4974568;28;20010;-66
2022/04/12 03:34:27;;;;;;;35.90;21.67;;;;;;;;;;4975190;28;20027;-69
2022/04/12 03:36:53;;;;;;;33.35;20.45;;;;;;;;;;4957264;28;20034;-69
2022/04/12 03:39:18;;;;;;;36.53;21.58;;;;;;;;;;4957895;28;20043;-69
2022/04/12 03:41:47;;;;;;;37.33;22.95;;;;;;;;;;4957438;28;20118;-70
2022/04/12 03:44:15;;;;;;;37.20;23.02;;;;;;;;;;4974378;28;20030;-70
2022/04/12 03:46:40;;;;;;;37.67;21.95;;;;;;;;;;4974673;28;20027;-70
2022/04/12 03:49:06;;;;;;;35.83;21.55;;;;;;;;;;4974781;28;20030;-69
2022/04/12 03:51:31;;;;;;;34.42;21.55;;;;;;;;;;4974743;28;20495;-69
2022/04/12 03:53:57;;;;;;;35.50;23.20;;;;;;;;;;4974392;28;20441;-69
2022/04/12 03:56:22;;;;;;;30.02;20.85;;;;;;;;;;4974784;28;20027;-70
2022/04/12 03:58:48;;;;;;;30.38;20.33;;;;;;;;;;4975076;28;20033;-73
2022/04/12 04:01:13;;;;;;;35.15;21.05;;;;;;;;;;4974607;28;20482;-68
2022/04/12 04:03:38;;;;;;;32.15;20.58;;;;;;;;;;4974868;28;20031;-68
2022/04/12 04:06:05;;;;;;;35.55;21.73;;;;;;;;;;4957340;28;20022;-68
2022/04/12 04:08:31;;;;;;;35.35;21.77;;;;;;;;;;4976684;28;20031;-69
2022/04/12 04:10:56;;;;;;;35.03;21.73;;;;;;;;;;4960415;28;20089;-69
2022/04/12 04:13:21;;;;;;;33.78;21.65;;;;;;;;;;4960460;28;20035;-69
2022/04/12 04:15:47;;;;;;;32.55;20.85;;;;;;;;;;4977143;28;20018;-69
2022/04/12 04:18:13;;;;;;;32.15;20.33;;;;;;;;;;4959474;28;20035;-68
2022/04/12 04:20:39;;;;;;;34.45;21.40;;;;;;;;;;4977488;28;20378;-68
2022/04/12 04:23:05;;;;;;;36.83;23.00;;;;;;;;;;4977137;28;20027;-68
2022/04/12 04:25:30;;;;;;;42.80;26.33;;;;;;;;;;4960171;28;20097;-68
2022/04/12 04:27:55;;;;;;;43.33;25.48;;;;;;;;;;4959994;28;20619;-68
2022/04/12 04:30:21;;;;;;;41.08;25.55;;;;;;;;;;4959696;28;20174;-70
2022/04/12 04:32:47;;;;;;;41.13;25.35;;;;;;;;;;4976370;28;20023;-70
2022/04/12 04:35:12;;;;;;;46.15;25.30;;;;;;;;;;4976388;28;20023;-70
2022/04/12 04:37:44;;;;;;;45.78;26.15;;;;;;;;;;4959038;28;20035;-70
2022/04/12 04:40:11;;;;;;;40.83;25.05;;;;;;;;;;4976350;28;20459;-70
2022/04/12 04:42:36;;;;;;;41.50;25.27;;;;;;;;;;4976201;28;20038;-70
2022/04/12 04:45:02;;;;;;;40.10;23.60;;;;;;;;;;4976118;28;20070;-70
2022/04/12 04:47:27;;;;;;;50.45;29.08;;;;;;;;;;4976188;28;20082;-70
2022/04/12 04:49:52;;;;;;;51.92;30.98;;;;;;;;;;4976207;28;20023;-70
2022/04/12 04:52:18;;;;;;;48.97;30.58;;;;;;;;;;4976125;28;20117;-70
2022/04/12 04:54:43;;;;;;;47.13;27.75;;;;;;;;;;4976167;28;20038;-70
2022/04/12 04:57:08;;;;;;;49.33;29.85;;;;;;;;;;4976126;28;20478;-70
2022/04/12 04:59:34;;;;;;;54.90;31.30;;;;;;;;;;4976086;28;20597;-71
2022/04/12 05:01:59;;;;;;;51.92;31.23;;;;;;;;;;4976037;28;20031;-71
2022/04/12 05:04:25;;;;;;;54.10;31.17;;;;;;;;;;4976014;28;20046;-71
2022/04/12 05:06:50;;;;;;;55.33;30.55;;;;;;;;;;4976328;28;20113;-69
2022/04/12 05:09:16;;;;;;;52.40;29.88;;;;;;;;;;4975605;28;20018;-69
2022/04/12 05:11:41;;;;;;;48.53;28.88;;;;;;;;;;4975771;28;20377;-69
2022/04/12 05:14:06;;;;;;;52.53;30.88;;;;;;;;;;4975683;28;20058;-68
2022/04/12 05:16:32;;;;;;;80.00;42.58;;;;;;;;;;4975606;28;20035;-69
2022/04/12 05:18:57;;;;;;;113.78;54.83;;;;;;;;;;4974390;28;20458;-69
2022/04/12 05:21:23;;;;;;;215.13;85.18;;;;;;;;;;4975513;28;20097;-69
2022/04/12 05:23:48;;;;;;;203.30;82.33;;;;;;;;;;4958112;28;20057;-69
2022/04/12 05:26:13;;;;;;;375.27;155.55;;;;;;;;;;4975432;28;20273;-68
2022/04/12 05:28:38;;;;;;;262.25;115.90;;;;;;;;;;4975401;28;20451;-68
2022/04/12 05:31:04;;;;;;;230.48;101.47;;;;;;;;;;4975339;28;20022;-68
2022/04/12 05:33:29;;;;;;;186.93;86.50;;;;;;;;;;4975303;28;20097;-69
2022/04/12 05:35:54;;;;;;;139.27;67.53;;;;;;;;;;4975234;28;20058;-69
2022/04/12 05:38:20;;;;;;;78.93;42.92;;;;;;;;;;4957883;28;20026;-69
2022/04/12 05:40:45;;;;;;;78.35;42.95;;;;;;;;;;4974999;28;20122;-68
2022/04/12 05:43:11;;;;;;;90.90;49.63;;;;;;;;;;4975050;28;20061;-69
2022/04/12 05:45:36;;;;;;;69.50;39.95;;;;;;;;;;4974971;28;20030;-68
2022/04/12 05:48:02;;;;;;;62.08;34.05;;;;;;;;;;4974983;28;20034;-69
2022/04/12 05:50:28;;;;;;;52.92;32.05;;;;;;;;;;4974942;28;20019;-69
2022/04/12 05:52:53;;;;;;;59.83;33.92;;;;;;;;;;4957872;28;20041;-69
2022/04/12 05:55:19;;;;;;;51.03;28.70;;;;;;;;;;4974927;28;20040;-69
2022/04/12 05:57:48;;;;;;;51.58;30.42;;;;;;;;;;4975133;28;20023;-69
2022/04/12 06:00:13;;;;;;;88.85;50.60;;;;;;;;;;4974813;28;20034;-69
2022/04/12 06:02:39;;;;;;;48.45;27.88;;;;;;;;;;4958183;28;20054;-69
2022/04/12 06:05:04;;;;;;;46.40;24.13;;;;;;;;;;4975966;28;20066;-69
2022/04/12 06:07:31;;;;;;;38.15;20.52;;;;;;;;;;4975696;28;20046;-69
2022/04/12 06:09:56;;;;;;;47.85;23.17;;;;;;;;;;4975164;28;20023;-69
2022/04/12 06:12:22;;;;;;;38.58;19.08;;;;;;;;;;4975554;28;20027;-69
2022/04/12 06:14:47;;;;;;;36.75;17.67;;;;;;;;;;4975924;28;20025;-69
2022/04/12 06:17:13;;;;;;;32.17;16.92;;;;;;;;;;4975847;28;20113;-69
2022/04/12 06:19:38;;;;;;;33.50;18.33;;;;;;;;;;4974864;28;20034;-69
2022/04/12 06:22:03;;;;;;;28.73;15.15;;;;;;;;;;4974436;28;20030;-69
2022/04/12 06:24:29;;;;;;;30.30;15.80;;;;;;;;;;4974577;28;20463;-69
2022/04/12 06:26:54;;;;;;;32.65;15.73;;;;;;;;;;4974213;28;20402;-69
2022/04/12 06:29:19;;;;;;;29.42;14.95;;;;;;;;;;4974640;28;20022;-69
2022/04/12 06:31:45;;;;;;;29.15;14.75;;;;;;;;;;4973854;28;20034;-69
2022/04/12 06:34:10;;;;;;;33.08;17.00;;;;;;;;;;4974592;28;20022;-69
2022/04/12 06:36:41;;;;;;;31.52;15.10;;;;;;;;;;4975754;28;20035;-69
2022/04/12 06:39:07;;;;;;;33.22;15.43;;;;;;;;;;4975432;28;20115;-68
2022/04/12 06:41:32;;;;;;;35.78;18.58;;;;;;;;;;4976097;28;20115;-69
2022/04/12 06:43:58;;;;;;;36.22;20.17;;;;;;;;;;4957727;28;20041;-68
2022/04/12 06:46:23;;;;;;;32.58;19.05;;;;;;;;;;4975660;28;20074;-69
2022/04/12 06:48:49;;;;;;;26.98;14.55;;;;;;;;;;4975072;28;20385;-69
2022/04/12 06:51:14;;;;;;;31.80;15.80;;;;;;;;;;4975329;28;20085;-69
2022/04/12 06:53:40;;;;;;;29.52;15.82;;;;;;;;;;4975252;28;20352;-69
2022/04/12 06:56:06;;;;;;;27.17;15.43;;;;;;;;;;4974984;28;20026;-69
2022/04/12 06:58:33;;;;;;;27.35;15.40;;;;;;;;;;4974939;28;20529;-69
2022/04/12 07:00:58;;;;;;;28.25;14.63;;;;;;;;;;4957573;28;20019;-69
2022/04/12 07:03:24;;;;;;;24.10;13.18;;;;;;;;;;4975077;28;20081;-69
2022/04/12 07:05:54;;;;;;;26.15;14.13;;;;;;;;;;4974888;28;20394;-69
2022/04/12 07:08:19;;;;;;;25.20;12.45;;;;;;;;;;4975084;28;20486;-69
2022/04/12 07:10:45;;;;;;;26.77;13.93;;;;;;;;;;4974799;28;20031;-69
2022/04/12 07:13:10;;;;;;;27.65;13.70;;;;;;;;;;4974779;28;20418;-69
2022/04/12 07:15:36;;;;;;;24.98;13.77;;;;;;;;;;4975054;28;20023;-68
2022/04/12 07:18:02;;;;;;;27.50;15.23;;;;;;;;;;4975024;28;20030;-69
2022/04/12 07:20:27;;;;;;;26.35;14.88;;;;;;;;;;4975022;28;20030;-69
2022/04/12 07:22:52;;;;;;;23.17;13.07;;;;;;;;;;4975250;28;20050;-69
2022/04/12 07:25:18;;;;;;;23.08;13.00;;;;;;;;;;4957387;28;20025;-69
2022/04/12 07:27:43;;;;;;;27.85;14.98;;;;;;;;;;4974675;28;20494;-69
2022/04/12 07:30:09;;;;;;;27.23;15.77;;;;;;;;;;4974909;28;20019;-69
2022/04/12 07:32:35;;;;;;;24.20;11.68;;;;;;;;;;4974883;28;20027;-69
2022/04/12 07:35:00;;;;;;;18.83;10.68;;;;;;;;;;4957242;28;20474;-69
2022/04/12 07:37:26;;;;;;;22.23;12.32;;;;;;;;;;4975156;28;20086;-69
2022/04/12 07:39:53;;;;;;;25.80;13.20;;;;;;;;;;4974392;28;20049;-69
2022/04/12 07:42:20;;;;;;;25.90;15.55;;;;;;;;;;4957654;28;20042;-69
2022/04/12 07:44:45;;;;;;;28.77;15.98;;;;;;;;;;4978773;28;20121;-69
2022/04/12 07:47:11;;;;;;;23.45;12.30;;;;;;;;;;4960880;28;20166;-69
2022/04/12 07:49:36;;;;;;;23.88;11.95;;;;;;;;;;4978252;28;20126;-69
2022/04/12 07:52:02;;;;;;;21.77;12.00;;;;;;;;;;4978479;28;20121;-69
2022/04/12 07:54:27;;;;;;;20.30;11.73;;;;;;;;;;4978168;28;20462;-69
2022/04/12 07:56:53;;;;;;;23.90;12.55;;;;;;;;;;4978101;28;20034;-69
2022/04/12 07:59:18;;;;;;;17.70;9.57;;;;;;;;;;4978605;28;20019;-69
2022/04/12 08:01:44;;;;;;;16.40;10.10;;;;;;;;;;4977984;28;20062;-69
2022/04/12 08:04:09;;;;;;;14.25;8.98;;;;;;;;;;4978200;28;20049;-69
2022/04/12 08:06:35;;;;;;;12.20;7.80;;;;;;;;;;4978195;28;20110;-69
2022/04/12 08:09:00;;;;;;;12.02;7.32;;;;;;;;;;4978156;28;20069;-69
2022/04/12 08:11:26;;;;;;;14.23;7.63;;;;;;;;;;4978076;28;20085;-69
2022/04/12 08:13:51;;;;;;;12.70;7.90;;;;;;;;;;4960255;28;20037;-69
2022/04/12 08:16:17;;;;;;;13.05;8.05;;;;;;;;;;4977684;28;20113;-69
2022/04/12 08:18:45;;;;;;;18.95;9.50;;;;;;;;;;4944734;28;20018;-69
2022/04/12 08:21:11;;;;;;;10.15;6.25;;;;;;;;;;4978117;28;20066;-69
2022/04/12 08:23:36;;;;;;;9.98;6.28;;;;;;;;;;4977501;28;20051;-69
2022/04/12 08:26:02;;;;;;;10.07;6.50;;;;;;;;;;4959541;28;20041;-69
2022/04/12 08:28:27;;;;;;;11.88;6.38;;;;;;;;;;4977433;28;20023;-69
2022/04/12 08:30:53;;;;;;;11.90;6.68;;;;;;;;;;4960726;28;20066;-69
2022/04/12 08:33:18;;;;;;;11.60;6.70;;;;;;;;;;4977571;28;20026;-69
2022/04/12 08:35:44;;;;;;;11.85;6.65;;;;;;;;;;4977758;28;20377;-69
2022/04/12 08:38:09;;;;;;;11.07;6.13;;;;;;;;;;4960164;28;20359;-69
2022/04/12 08:40:36;;;;;;;10.32;6.68;;;;;;;;;;4977131;28;20047;-69
2022/04/12 08:43:01;;;;;;;10.05;7.07;;;;;;;;;;4959913;28;20023;-69
2022/04/12 08:45:26;;;;;;;11.60;6.45;;;;;;;;;;4977546;28;20033;-69
2022/04/12 08:47:52;;;;;;;10.60;6.00;;;;;;;;;;4977224;28;20038;-70
2022/04/12 08:50:19;;;;;;;10.38;5.75;;;;;;;;;;4977177;28;20018;-69
2022/04/12 08:52:45;;;;;;;9.45;5.75;;;;;;;;;;4977574;28;20035;-69
2022/04/12 08:55:11;;;;;;;9.07;5.78;;;;;;;;;;4976891;28;20106;-69
2022/04/12 08:57:37;;;;;;;7.97;4.70;;;;;;;;;;4960210;28;20110;-70
2022/04/12 09:00:03;;;;;;;7.40;4.65;;;;;;;;;;4976925;28;20082;-69
2022/04/12 09:02:29;;;;;;;7.07;4.53;;;;;;;;;;4975792;28;20035;-69
2022/04/12 09:04:54;;;;;;;8.95;5.45;;;;;;;;;;4958377;28;20015;-69
2022/04/12 09:07:24;;;;;;;7.70;4.63;;;;;;;;;;4975778;28;20109;-69
2022/04/12 09:09:50;;;;;;;6.90;4.65;;;;;;;;;;4975799;28;20027;-69
2022/04/12 09:12:17;;;;;;;6.10;4.70;;;;;;;;;;4975674;28;20022;-69
2022/04/12 09:14:54;;;;;;;6.22;4.60;;;;;;;;;;4958570;28;20039;-69
2022/04/12 09:17:26;;;;;;;5.20;4.22;;;;;;;;;;4975633;28;20031;-69
2022/04/12 09:19:52;;;;;;;8.15;4.88;;;;;;;;;;4975551;28;20026;-69
2022/04/12 09:22:18;;;;;;;6.57;5.05;;;;;;;;;;4958123;28;20103;-69
2022/04/12 09:24:45;;;;;;;8.00;4.90;;;;;;;;;;4958045;28;20062;-69
2022/04/12 09:27:47;;;;;;;7.30;4.85;;;;;;;;;;4975386;28;20374;-69
2022/04/12 09:30:37;;;;;;;47.50;30.63;;;;;;;;;;4975409;28;20042;-69
2022/04/12 09:33:03;;;;;;;;;;;;;;;;;;4975587;28;20419;-69
2022/04/12 09:35:28;;;;;;;6.80;4.77;;;;;;;;;;4975300;28;19952;-69
2022/04/12 09:37:53;;;;;;;12.63;5.65;;;;;;;;;;4975274;28;20361;-69
2022/04/12 09:40:19;;;;;;;8.05;5.05;;;;;;;;;;4975037;28;20043;-70
2022/04/12 09:42:49;;;;;;;6.35;4.57;;;;;;;;;;4975118;28;20089;-69
2022/04/12 09:45:24;;;;;;;9.02;5.80;;;;;;;;;;4975036;28;20073;-69
2022/04/12 09:47:51;;;;;;;5.28;4.78;;;;;;;;;;4975048;28;20045;-69
2022/04/12 09:50:19;;;;;;;6.28;4.43;;;;;;;;;;4975008;28;20474;-69
2022/04/12 09:52:55;;;;;;;8.63;4.97;;;;;;;;;;4974988;28;20031;-69
2022/04/12 09:55:53;;;;;;;6.10;4.07;;;;;;;;;;4974893;28;20427;-69
2022/04/12 09:58:21;;;;;;;6.18;4.05;;;;;;;;;;4936084;28;20375;-69
2022/04/12 10:00:49;;;;;;;6.47;4.30;;;;;;;;;;4957462;28;20077;-69
2022/04/12 10:03:16;;;;;;;5.90;4.43;;;;;;;;;;4974802;28;20034;-68
2022/04/12 10:05:43;;;;;;;7.88;5.00;;;;;;;;;;4974990;28;20033;-69
2022/04/12 10:08:14;;;;;;;4.38;3.40;;;;;;;;;;4975728;28;20101;-69
2022/04/12 10:10:40;;;;;;;6.97;3.58;;;;;;;;;;4975580;28;20033;-69
2022/04/12 10:13:06;;;;;;;6.15;3.97;;;;;;;;;;4957469;28;20019;-69
2022/04/12 10:15:31;;;;;;;5.40;4.07;;;;;;;;;;4974717;28;20038;-69
2022/04/12 10:17:57;;;;;;;3.80;2.95;;;;;;;;;;4975588;28;20027;-69
2022/04/12 10:20:22;;;;;;;5.75;3.80;;;;;;;;;;4974673;28;20037;-69
2022/04/12 10:22:48;;;;;;;5.82;3.28;;;;;;;;;;4974816;28;20033;-69
2022/04/12 10:25:21;;;;;;;5.18;3.58;;;;;;;;;;4974538;28;20114;-69
2022/04/12 10:27:51;;;;;;;4.25;3.55;;;;;;;;;;4974420;28;20487;-69
2022/04/12 10:30:21;;;;;;;5.65;3.83;;;;;;;;;;4974494;28;20058;-69
2022/04/12 10:33:00;;;;;;;6.50;3.88;;;;;;;;;;4956978;28;20501;-69
2022/04/12 10:35:25;;;;;;;9.05;5.55;;;;;;;;;;4975526;28;20105;-69
2022/04/12 10:37:53;;;;;;;7.00;5.60;;;;;;;;;;4975264;28;20442;-69
2022/04/12 10:40:19;;;;;;;4.68;3.85;;;;;;;;;;4974981;28;20050;-69
2022/04/12 10:42:45;;;;;;;7.47;3.85;;;;;;;;;;4975443;28;20089;-69
2022/04/12 10:45:10;;;;;;;7.47;4.15;;;;;;;;;;4958066;28;20077;-69
2022/04/12 10:47:38;;;;;;;8.07;4.88;;;;;;;;;;4975358;28;20102;-68
2022/04/12 10:50:08;;;;;;;8.77;5.78;;;;;;;;;;4975343;28;20466;-69
2022/04/12 10:52:41;;;;;;;6.72;4.55;;;;;;;;;;4957742;28;20082;-68
2022/04/12 10:55:08;;;;;;;6.78;4.43;;;;;;;;;;4974969;28;20030;-68
2022/04/12 10:57:33;;;;;;;7.22;4.60;;;;;;;;;;4975533;28;20027;-68
2022/04/12 11:00:12;;;;;;;5.93;4.30;;;;;;;;;;4975198;28;20038;-69
2022/04/12 11:03:04;;;;;;;7.32;4.20;;;;;;;;;;4974880;28;20085;-68
2022/04/12 11:05:32;;;;;;;5.22;3.42;;;;;;;;;;4973274;28;20478;-68
2022/04/12 11:07:58;;;;;;;6.38;4.40;;;;;;;;;;4974909;28;20111;-68
2022/04/12 11:10:24;;;;;;;6.28;4.65;;;;;;;;;;4974698;28;20039;-68
2022/04/12 11:12:50;;;;;;;5.35;4.22;;;;;;;;;;4974779;28;20459;-69
2022/04/12 11:15:30;;;;;;;4.70;3.72;;;;;;;;;;4957222;28;20034;-69
2022/04/12 11:18:05;;;;;;;5.00;3.30;;;;;;;;;;4977905;28;20073;-69
2022/04/12 11:20:31;;;;;;;4.40;2.95;;;;;;;;;;4978371;28;20058;-69
2022/04/12 11:22:57;;;;;;;3.95;3.20;;;;;;;;;;4977786;28;20065;-69
2022/04/12 11:25:22;;;;;;;5.95;3.55;;;;;;;;;;4977676;28;20043;-68
2022/04/12 11:27:58;;;;;;;4.22;3.15;;;;;;;;;;4960468;28;20023;-69
2022/04/12 11:30:25;;;;;;;6.28;4.53;;;;;;;;;;4960658;28;20474;-69
2022/04/12 11:32:52;;;;;;;4.00;3.13;;;;;;;;;;4977877;28;20050;-69
2022/04/12 11:35:19;;;;;;;5.88;4.32;;;;;;;;;;4977492;28;20042;-68
2022/04/12 11:37:44;;;;;;;6.25;4.47;;;;;;;;;;4960275;28;20031;-69
2022/04/12 11:40:10;;;;;;;3.63;3.13;;;;;;;;;;4959993;28;20027;-69
2022/04/12 11:42:35;;;;;;;6.45;4.00;;;;;;;;;;4977222;28;20083;-69
2022/04/12 11:45:01;;;;;;;4.32;3.30;;;;;;;;;;4977259;28;20471;-69
2022/04/12 11:47:28;;;;;;;4.72;3.30;;;;;;;;;;4977225;28;20026;-68
2022/04/12 11:49:53;;;;;;;5.60;3.83;;;;;;;;;;4959759;28;20039;-68
2022/04/12 11:52:19;;;;;;;3.83;3.15;;;;;;;;;;4977166;28;20103;-69
2022/04/12 11:54:45;;;;;;;8.07;4.25;;;;;;;;;;4959916;28;20081;-68
2022/04/12 11:57:21;;;;;;;4.72;3.78;;;;;;;;;;4977087;28;20074;-69
2022/04/12 11:59:50;;;;;;;5.68;4.38;;;;;;;;;;4959666;28;20466;-68
2022/04/12 12:02:17;;;;;;;6.70;4.50;;;;;;;;;;4977007;28;20023;-68
2022/04/12 12:04:49;;;;;;;4.70;4.18;;;;;;;;;;4976931;28;20027;-68
2022/04/12 12:07:15;;;;;;;8.23;4.50;;;;;;;;;;4976901;28;20117;-68
2022/04/12 12:09:50;;;;;;;5.57;4.57;;;;;;;;;;4959545;28;20043;-68
2022/04/12 12:12:16;;;;;;;5.38;4.85;;;;;;;;;;4976775;28;20033;-68
2022/04/12 12:14:41;;;;;;;6.43;4.22;;;;;;;;;;4976761;28;20109;-68
2022/04/12 12:17:09;;;;;;;6.85;4.07;;;;;;;;;;4976785;28;20031;-68
2022/04/12 12:19:38;;;;;;;11.27;3.92;;;;;;;;;;4977387;28;20093;-68
2022/04/12 12:22:04;;;;;;;7.63;4.32;;;;;;;;;;4977478;28;20374;-68
2022/04/12 12:24:30;;;;;;;4.28;3.88;;;;;;;;;;4977572;28;20027;-68
2022/04/12 12:26:55;;;;;;;3.88;3.42;;;;;;;;;;4977877;28;20487;-68
2022/04/12 12:29:22;;;;;;;4.43;3.88;;;;;;;;;;4977212;28;20343;-68
2022/04/12 12:31:47;;;;;;;4.30;3.85;;;;;;;;;;4977500;28;20030;-68
2022/04/12 12:34:25;;;;;;;4.43;3.45;;;;;;;;;;4977728;28;20037;-68
2022/04/12 12:36:50;;;;;;;3.90;3.60;;;;;;;;;;4977697;28;20373;-68
2022/04/12 12:39:17;;;;;;;3.80;3.40;;;;;;;;;;4977394;28;20030;-68
2022/04/12 12:41:43;;;;;;;4.60;3.50;;;;;;;;;;4977320;28;20111;-68
2022/04/12 12:44:09;;;;;;;3.67;3.38;;;;;;;;;;4977539;28;20146;-68
2022/04/12 12:46:35;;;;;;;4.18;3.13;;;;;;;;;;4977489;28;20039;-68
2022/04/12 12:49:10;;;;;;;4.38;3.65;;;;;;;;;;4977237;28;20022;-68
2022/04/12 12:51:37;;;;;;;6.00;4.22;;;;;;;;;;4977453;28;20031;-68
2022/04/12 12:54:02;;;;;;;8.45;4.03;;;;;;;;;;4977157;28;20019;-68
2022/04/12 12:56:31;;;;;;;5.18;3.50;;;;;;;;;;4977101;28;20497;-68
2022/04/12 12:59:16;;;;;;;3.85;3.22;;;;;;;;;;4977308;28;20400;-68
2022/04/12 13:01:42;;;;;;;5.82;4.03;;;;;;;;;;4977251;28;20030;-68
2022/04/12 13:04:18;;;;;;;7.75;4.07;;;;;;;;;;4976864;28;20029;-68
2022/04/12 13:06:43;;;;;;;3.70;3.30;;;;;;;;;;4977178;28;20031;-68
2022/04/12 13:09:09;;;;;;;4.23;3.37;;;;;;;;;;4976830;28;20034;-68
2022/04/12 13:11:34;;;;;;;4.70;3.40;;;;;;;;;;4976796;28;20266;-68
2022/04/12 13:13:59;;;;;;;31.58;25.48;;;;;;;;;;4977289;28;20398;-68
2022/04/12 13:16:25;;;;;;;5.15;4.00;;;;;;;;;;4976716;28;20441;-68
2022/04/12 13:18:50;;;;;;;4.63;3.20;;;;;;;;;;4976570;28;20027;-68
2022/04/12 13:21:18;;;;;;;7.05;3.78;;;;;;;;;;4959678;28;20340;-68
2022/04/12 13:23:43;;;;;;;4.15;2.92;;;;;;;;;;4959991;28;20430;-68
2022/04/12 13:26:09;;;;;;;3.42;3.13;;;;;;;;;;4975644;28;20117;-69
2022/04/12 13:28:34;;;;;;;5.10;3.10;;;;;;;;;;4975497;28;20023;-68
2022/04/12 13:30:59;;;;;;;3.97;3.47;;;;;;;;;;4975348;28;20019;-68
2022/04/12 13:33:25;;;;;;;4.07;3.67;;;;;;;;;;4975311;28;20094;-68
2022/04/12 13:35:50;;;;;;;6.35;3.60;;;;;;;;;;4957967;28;20062;-68
2022/04/12 13:38:15;;;;;;;5.82;4.03;;;;;;;;;;4975221;28;20466;-68
2022/04/12 13:40:41;;;;;;;5.18;3.95;;;;;;;;;;4974015;28;20130;-68
2022/04/12 13:43:06;;;;;;;6.05;4.00;;;;;;;;;;4975177;28;20085;-68
2022/04/12 13:45:31;;;;;;;5.18;3.70;;;;;;;;;;4957794;28;20101;-68
2022/04/12 13:47:56;;;;;;;8.70;5.15;;;;;;;;;;4941695;28;20019;-68
2022/04/12 13:50:22;;;;;;;4.38;3.90;;;;;;;;;;4957692;28;20054;-68
2022/04/12 13:52:47;;;;;;;8.10;6.03;;;;;;;;;;4974993;28;20382;-68
2022/04/12 13:55:13;;;;;;;3.53;3.30;;;;;;;;;;4957613;28;20054;-68
2022/04/12 13:57:38;;;;;;;3.38;2.72;;;;;;;;;;4974888;28;20482;-68
2022/04/12 14:00:05;;;;;;;6.53;5.05;;;;;;;;;;4974873;28;20044;-68
2022/04/12 14:02:31;;;;;;;4.15;2.75;;;;;;;;;;4957426;28;20080;-69
2022/04/12 14:04:56;;;;;;;4.40;3.05;;;;;;;;;;4974676;28;20034;-68
2022/04/12 14:07:22;;;;;;;4.35;2.75;;;;;;;;;;4974975;28;20022;-68
2022/04/12 14:09:48;;;;;;;6.53;3.22;;;;;;;;;;4975685;28;20023;-68
2022/04/12 14:12:13;;;;;;;4.32;2.95;;;;;;;;;;4975145;28;20029;-69
2022/04/12 14:14:39;;;;;;;3.72;3.25;;;;;;;;;;4975645;28;20034;-68
2022/04/12 14:17:04;;;;;;;3.72;3.17;;;;;;;;;;4975840;28;20023;-68
2022/04/12 14:19:30;;;;;;;4.68;3.50;;;;;;;;;;4976317;28;20039;-68
2022/04/12 14:21:55;;;;;;;3.58;2.97;;;;;;;;;;4975535;28;20386;-69
2022/04/12 14:24:21;;;;;;;5.57;3.22;;;;;;;;;;4975387;28;20035;-68
2022/04/12 14:26:46;;;;;;;4.53;3.40;;;;;;;;;;4957800;28;20019;-68